Time;durP1;ratioP1;P1;durP2;ratioP2;P2;SDS_P1;SDS_P2;PMS_P1;PMS_P2;Temp;Humidity;BMP_temperature;BMP_pressure;BME280_temperature;BME280_humidity;BME280_pressure;Samples;Min_cycle;Max_cycle;Signal;HPM_P1;HPM_P2
2022/05/18 00:04:52;;;;;;;2.22;0.75;;;;;;;22.37;37.88;101765.41;16158981;19;129165;-50
2022/05/18 00:10:14;;;;;;;1.67;0.65;;;;;;;22.35;37.78;101773.16;16160524;19;131007;-50
2022/05/18 00:15:36;;;;;;;1.30;0.80;;;;;;;22.34;38.05;101768.69;16157447;19;129564;-44
2022/05/18 00:21:00;;;;;;;1.05;0.70;;;;;;;22.34;37.76;101765.88;16156179;19;130167;-46
2022/05/18 00:26:22;;;;;;;2.75;0.70;;;;;;;22.31;37.87;101760.81;16157558;19;129634;-48
2022/05/18 00:31:46;;;;;;;1.10;0.50;;;;;;;22.31;38.12;101771.97;16157858;19;130359;-45
2022/05/18 00:37:08;;;;;;;2.00;0.50;;;;;;;22.30;37.66;101770.25;16137211;19;129541;-50
2022/05/18 00:42:30;;;;;;;1.80;0.60;;;;;;;22.28;37.66;101762.16;16137834;19;130150;-50
2022/05/18 00:47:52;;;;;;;1.42;0.70;;;;;;;22.27;38.09;101766.06;16143349;19;130402;-52
2022/05/18 00:53:19;;;;;;;1.92;0.70;;;;;;;22.27;37.95;101770.78;16140615;19;130393;-46
2022/05/18 00:58:48;;;;;;;0.80;0.47;;;;;;;22.26;37.75;101757.94;16133537;19;129716;-48
2022/05/18 01:04:13;;;;;;;1.17;0.82;;;;;;;22.25;37.90;101761.84;16141549;19;129830;-47
2022/05/18 01:09:39;;;;;;;2.20;0.60;;;;;;;22.23;37.67;101752.88;16141055;19;130145;-49
2022/05/18 01:15:12;;;;;;;0.63;0.52;;;;;;;22.24;38.17;101768.50;16137771;19;129656;-50
2022/05/18 01:20:37;;;;;;;2.05;0.63;;;;;;;22.21;37.89;101752.28;16140204;19;130424;-52
2022/05/18 01:26:22;;;;;;;1.08;0.40;;;;;;;22.20;37.72;101747.75;16136927;19;129990;-51
2022/05/18 01:31:51;;;;;;;1.55;0.52;;;;;;;22.19;37.79;101746.94;16135355;19;130622;-46
2022/05/18 01:37:15;;;;;;;1.35;0.52;;;;;;;22.18;37.85;101747.16;16133954;19;130760;-52
2022/05/18 01:42:43;;;;;;;1.30;0.40;;;;;;;22.17;37.89;101749.13;16136808;19;129198;-50
2022/05/18 01:48:11;;;;;;;0.70;0.40;;;;;;;22.18;38.00;101749.94;16132733;19;130318;-48
2022/05/18 01:53:34;;;;;;;0.50;0.40;;;;;;;22.15;37.98;101745.72;16135916;19;131082;-49
2022/05/18 01:58:56;;;;;;;1.35;0.47;;;;;;;22.15;38.02;101747.69;16130057;19;130579;-49
2022/05/18 02:04:18;;;;;;;1.35;0.63;;;;;;;22.13;37.75;101757.13;16134952;19;131186;-52
2022/05/18 02:09:40;;;;;;;0.47;0.47;;;;;;;22.14;37.87;101755.19;16135169;19;129702;-46
2022/05/18 02:15:03;;;;;;;0.60;0.30;;;;;;;22.13;37.96;101773.00;16132609;19;128984;-47
2022/05/18 02:20:25;;;;;;;0.55;0.40;;;;;;;22.12;37.84;101752.66;16130611;19;130933;-54
2022/05/18 02:25:47;;;;;;;0.35;0.35;;;;;;;22.11;37.83;101767.69;16134537;19;130237;-50
2022/05/18 02:31:09;;;;;;;1.23;0.35;;;;;;;22.09;38.06;101769.88;16132761;19;129902;-52
2022/05/18 02:36:30;;;;;;;0.73;0.50;;;;;;;22.09;37.87;101778.22;16128218;19;130288;-51
2022/05/18 02:41:52;;;;;;;1.05;0.38;;;;;;;22.09;37.88;101769.88;16130842;19;130124;-52
2022/05/18 02:47:14;;;;;;;1.05;0.50;;;;;;;22.08;38.16;101776.53;16129038;19;130320;-53
2022/05/18 02:52:37;;;;;;;1.85;0.68;;;;;;;22.08;37.96;101778.50;16133855;19;130702;-54
2022/05/18 02:57:59;;;;;;;1.08;0.65;;;;;;;22.07;38.37;101788.78;16125572;19;130474;-52
2022/05/18 03:03:21;;;;;;;0.75;0.50;;;;;;;22.06;38.26;101798.22;16124964;19;130824;-52
2022/05/18 03:08:44;;;;;;;0.85;0.30;;;;;;;22.06;38.21;101803.78;16124018;19;129871;-53
2022/05/18 03:14:06;;;;;;;0.82;0.40;;;;;;;22.05;38.40;101799.31;16130909;19;130993;-45
2022/05/18 03:19:28;;;;;;;0.50;0.40;;;;;;;22.06;38.03;101802.97;16126198;19;129459;-49
2022/05/18 03:24:49;;;;;;;2.35;0.60;;;;;;;22.04;38.22;101800.41;16130590;19;130432;-48
2022/05/18 03:30:12;;;;;;;1.10;0.50;;;;;;;22.06;38.21;101805.75;16133573;19;130713;-48
2022/05/18 03:35:35;;;;;;;0.47;0.40;;;;;;;22.04;38.45;101811.56;16130102;19;130478;-47
2022/05/18 03:40:57;;;;;;;0.77;0.40;;;;;;;22.03;38.13;101826.56;16125999;19;131027;-45
2022/05/18 03:46:18;;;;;;;0.77;0.30;;;;;;;22.04;38.42;101819.06;16129873;19;131003;-49
2022/05/18 03:51:40;;;;;;;0.60;0.40;;;;;;;22.03;38.46;101829.34;16130526;19;130119;-47
2022/05/18 03:57:03;;;;;;;1.00;0.50;;;;;;;22.02;38.36;101822.13;16124269;19;129930;-49
2022/05/18 04:02:25;;;;;;;1.13;0.50;;;;;;;22.02;38.27;101826.84;16124094;19;130857;-52
2022/05/18 04:07:48;;;;;;;0.80;0.40;;;;;;;22.02;37.91;101827.69;16127278;19;130221;-48
2022/05/18 04:13:18;;;;;;;0.30;0.28;;;;;;;22.01;38.29;101820.44;16140607;19;130124;-45
2022/05/18 04:18:40;;;;;;;0.30;0.30;;;;;;;22.00;38.47;101821.53;16138223;19;130577;-49
2022/05/18 04:24:02;;;;;;;0.30;0.20;;;;;;;22.00;37.99;101829.00;16142867;19;130492;-50
2022/05/18 04:29:25;;;;;;;0.63;0.45;;;;;;;21.99;38.34;101833.75;16143147;19;129427;-44
2022/05/18 04:34:48;;;;;;;0.50;0.30;;;;;;;21.97;38.46;101835.94;16142823;19;129449;-44
2022/05/18 04:40:10;;;;;;;0.65;0.50;;;;;;;21.98;38.23;101843.22;16142126;19;129516;-44
2022/05/18 04:45:32;;;;;;;1.00;0.32;;;;;;;21.97;38.11;101852.66;16141933;19;130012;-51
2022/05/18 04:50:54;;;;;;;1.10;0.50;;;;;;;21.97;38.51;101866.59;16143775;19;129472;-49
2022/05/18 04:56:15;;;;;;;1.40;0.40;;;;;;;21.97;38.33;101866.59;16137119;19;130545;-56
2022/05/18 05:01:38;;;;;;;0.90;0.50;;;;;;;21.96;38.25;101871.31;16141522;19;130705;-46
2022/05/18 05:06:59;;;;;;;0.30;0.20;;;;;;;21.95;38.11;101891.06;16140768;19;130613;-47
2022/05/18 05:12:21;;;;;;;0.57;0.30;;;;;;;21.95;38.37;101905.00;16140921;19;129713;-43
2022/05/18 05:17:43;;;;;;;12.10;1.23;;;;;;;21.95;38.43;101918.91;16133695;19;129783;-62
2022/05/18 05:23:05;;;;;;;2.58;0.60;;;;;;;21.94;38.80;101917.22;16136498;19;129585;-53
2022/05/18 05:28:27;;;;;;;1.48;0.60;;;;;;;21.94;38.42;101931.16;16137777;19;130778;-53
2022/05/18 05:33:48;;;;;;;2.80;0.38;;;;;;;21.95;38.63;101942.06;16138812;19;130444;-50
2022/05/18 05:39:10;;;;;;;3.70;0.70;;;;;;;21.97;38.62;101933.44;16133034;19;129851;-50
2022/05/18 05:44:32;;;;;;;2.53;0.70;;;;;;;21.95;38.56;101939.28;16137323;19;129586;-51
2022/05/18 05:49:54;;;;;;;1.05;0.65;;;;;;;21.97;38.37;101944.59;16136763;19;130290;-50
2022/05/18 05:55:15;;;;;;;5.15;0.68;;;;;;;21.98;38.57;101944.34;16134172;19;130263;-52
2022/05/18 06:00:37;;;;;;;2.70;0.68;;;;;;;21.98;38.55;101940.72;16130928;19;129686;-48
2022/05/18 06:05:59;;;;;;;2.13;0.50;;;;;;;21.99;38.84;101948.00;16137474;19;130403;-54
2022/05/18 06:11:21;;;;;;;6.50;0.80;;;;;;;22.00;38.61;101954.41;16136419;19;130170;-51
2022/05/18 06:16:46;;;;;;;3.80;0.65;;;;;;;22.00;38.35;101952.47;16133014;19;130544;-52
2022/05/18 06:22:08;;;;;;;2.03;0.60;;;;;;;22.00;38.76;101966.41;16134429;19;129005;-50
2022/05/18 06:27:30;;;;;;;4.07;0.60;;;;;;;22.02;38.46;101968.94;16134694;19;130531;-52
2022/05/18 06:32:53;;;;;;;3.28;0.60;;;;;;;22.02;38.95;101969.81;16132096;19;129765;-53
2022/05/18 06:38:15;;;;;;;1.35;0.50;;;;;;;22.03;38.93;101982.63;16131723;19;131022;-49
2022/05/18 06:43:38;;;;;;;2.17;0.60;;;;;;;22.05;38.73;101987.97;16132620;19;130603;-49
2022/05/18 06:49:01;;;;;;;1.88;0.70;;;;;;;22.07;38.98;102000.56;16135003;19;130913;-52
2022/05/18 06:54:23;;;;;;;3.97;0.70;;;;;;;22.08;38.74;102002.25;16123610;19;129413;-52
2022/05/18 07:00:06;;;;;;;0.68;0.60;;;;;;;22.09;38.80;102003.13;16112645;19;129868;-53
2022/05/18 07:05:27;;;;;;;1.80;0.70;;;;;;;22.10;39.02;102010.34;16118856;19;130340;-50
2022/05/18 07:10:50;;;;;;;2.80;0.88;;;;;;;22.11;39.07;101998.97;16127526;19;129941;-51
2022/05/18 07:16:12;;;;;;;1.48;0.88;;;;;;;22.13;38.57;102001.50;16129819;19;129774;-47
2022/05/18 07:21:33;;;;;;;1.88;0.70;;;;;;;22.16;38.88;102014.09;16132089;19;129973;-47
2022/05/18 07:26:55;;;;;;;1.48;0.50;;;;;;;22.17;38.60;102022.25;16128980;19;129755;-50
2022/05/18 07:32:17;;;;;;;2.25;0.70;;;;;;;22.20;38.68;102018.09;16137123;19;130012;-52
2022/05/18 07:37:38;;;;;;;2.00;0.40;;;;;;;22.22;38.80;102016.78;16133093;19;130798;-49
2022/05/18 07:43:01;;;;;;;1.50;0.70;;;;;;;22.25;38.84;102029.41;16124111;19;130142;-50
2022/05/18 07:48:24;;;;;;;2.47;0.80;;;;;;;22.26;38.69;102037.53;16132072;19;130745;-52
2022/05/18 07:53:45;;;;;;;1.92;0.77;;;;;;;22.28;38.79;102034.47;16134927;19;130161;-50
2022/05/18 07:59:08;;;;;;;3.10;0.50;;;;;;;22.30;38.87;102040.66;16145803;19;129634;-53
2022/05/18 08:04:30;;;;;;;3.75;0.90;;;;;;;22.33;38.61;102044.91;16150171;19;129315;-52
2022/05/18 08:15:32;;;;;;;2.08;0.70;;;;;;;22.34;39.03;102052.19;16146621;19;129718;-48
2022/05/18 08:20:54;;;;;;;1.85;0.80;;;;;;;22.35;38.86;102051.94;16146817;19;129327;-53
2022/05/18 08:26:16;;;;;;;1.85;0.75;;;;;;;22.40;38.90;102056.78;16146941;19;129380;-48
2022/05/18 08:31:38;;;;;;;3.10;0.80;;;;;;;22.42;38.96;102057.38;16149906;19;130433;-49
2022/05/18 08:37:00;;;;;;;1.00;0.88;;;;;;;22.44;38.94;102061.63;16149119;19;128912;-53
2022/05/18 08:42:22;;;;;;;3.00;0.93;;;;;;;22.47;38.88;102057.47;16150012;19;129574;-51
2022/05/18 08:48:11;;;;;;;2.53;1.10;;;;;;;22.50;39.06;102045.00;16150162;19;129196;-47
2022/05/18 08:53:56;;;;;;;2.00;0.73;;;;;;;22.50;38.92;102048.63;16142423;19;129838;-52
2022/05/18 08:59:26;;;;;;;3.22;0.85;;;;;;;22.50;39.25;102045.84;16143990;19;129808;-50
2022/05/18 09:05:04;;;;;;;1.77;0.70;;;;;;;22.53;38.98;102058.44;16149064;19;130743;-52
2022/05/18 09:10:57;;;;;;;1.20;0.55;;;;;;;22.53;39.07;102053.72;16149779;19;129443;-49
2022/05/18 09:16:56;;;;;;;3.80;0.68;;;;;;;22.54;38.97;102051.78;16145882;19;129258;-49
2022/05/18 09:22:27;;;;;;;1.42;0.63;;;;;;;22.52;39.03;102045.63;16147587;19;129140;-49
2022/05/18 09:28:03;;;;;;;3.90;1.00;;;;;;;22.53;39.17;102050.94;16147609;19;129627;-51
2022/05/18 09:33:33;;;;;;;0.77;0.55;;;;;;;22.52;39.01;102052.03;16145821;19;129502;-49
2022/05/18 09:38:56;;;;;;;2.60;0.60;;;;;;;22.52;39.00;102056.78;16141824;19;129555;-52
2022/05/18 09:44:41;;;;;;;0.98;0.50;;;;;;;22.53;39.12;102053.72;16145141;19;128917;-52
2022/05/18 09:50:06;;;;;;;1.38;0.60;;;;;;;22.52;38.80;102051.19;16145697;19;130467;-53
2022/05/18 09:55:28;;;;;;;1.20;0.63;;;;;;;22.52;38.84;102051.19;16144707;19;129348;-49
2022/05/18 10:07:26;;;;;;;0.93;0.50;;;;;;;22.51;39.12;102046.72;16138128;19;129087;-50
2022/05/18 10:12:18;;;;;;;;;;;;;;;22.48;39.47;102044.41;16145017;19;129288;-52
2022/05/18 10:17:48;;;;;;;2.63;0.60;;;;;;;22.51;38.94;102047.53;16140547;19;129058;-49
2022/05/18 10:23:26;;;;;;;1.00;0.60;;;;;;;22.53;39.17;102045.38;16143851;19;128878;-51
2022/05/18 10:28:56;;;;;;;1.27;0.80;;;;;;;22.53;39.23;102047.28;16144275;19;129560;-50
2022/05/18 10:34:24;;;;;;;2.50;0.40;;;;;;;22.54;39.41;102048.97;16142817;19;129830;-49
2022/05/18 10:39:49;;;;;;;1.90;0.60;;;;;;;22.55;39.03;102039.53;16139904;19;128876;-51
2022/05/18 10:45:26;;;;;;;2.23;0.70;;;;;;;22.55;38.84;102045.09;16146074;19;131427;-49
2022/05/18 10:50:49;;;;;;;2.58;0.50;;;;;;;22.53;39.26;102033.34;16141644;19;128978;-48
2022/05/18 10:56:25;;;;;;;0.75;0.50;;;;;;;22.54;39.13;102026.66;16141702;19;129446;-51
2022/05/18 11:02:12;;;;;;;1.25;0.40;;;;;;;22.55;39.02;102029.25;16138008;19;129202;-51
2022/05/18 11:07:34;;;;;;;0.85;0.45;;;;;;;22.53;39.18;102023.06;16140995;19;130059;-47
2022/05/18 11:13:03;;;;;;;1.60;0.50;;;;;;;22.54;38.64;102026.66;16140140;19;129999;-50
2022/05/18 11:18:27;;;;;;;3.13;0.70;;;;;;;22.55;39.06;102028.38;16136253;19;129505;-52
2022/05/18 11:23:49;;;;;;;1.37;0.50;;;;;;;22.54;38.81;102027.53;16138750;19;129108;-51
2022/05/18 11:29:29;;;;;;;0.98;0.45;;;;;;;22.58;39.07;102022.31;16133253;19;129261;-52
2022/05/18 11:35:01;;;;;;;0.98;0.57;;;;;;;22.56;38.97;102030.94;16138485;19;128877;-48
2022/05/18 11:40:50;;;;;;;1.58;0.50;;;;;;;22.58;39.12;102022.31;16134669;19;129552;-51
2022/05/18 11:46:39;;;;;;;1.17;0.45;;;;;;;22.58;39.22;102030.69;16138235;19;129236;-50
2022/05/18 11:52:20;;;;;;;1.20;0.75;;;;;;;22.57;39.33;102015.03;16137405;19;129580;-52
2022/05/18 11:58:24;;;;;;;1.63;0.47;;;;;;;22.57;38.94;102007.53;16135284;19;130822;-49
2022/05/18 12:04:00;;;;;;;1.58;0.40;;;;;;;22.57;38.91;102015.03;16131403;19;129303;-49
2022/05/18 12:09:38;;;;;;;9.35;1.38;;;;;;;22.59;39.15;102013.69;16134489;19;129147;-47
2022/05/18 12:15:38;;;;;;;2.63;0.90;;;;;;;22.59;38.99;101993.31;16132627;19;129249;-52
2022/05/18 12:21:25;;;;;;;3.70;0.60;;;;;;;22.59;39.42;102004.47;16131256;19;129504;-47
2022/05/18 12:26:47;;;;;;;3.20;0.57;;;;;;;22.59;39.14;101990.53;16134471;19;129102;-50
2022/05/18 12:32:11;;;;;;;1.55;0.50;;;;;;;22.60;39.06;101992.22;16138235;19;129131;-48
2022/05/18 12:38:06;;;;;;;1.20;0.60;;;;;;;22.62;39.30;101995.63;16147421;19;129371;-51
2022/05/18 12:43:38;;;;;;;1.15;0.63;;;;;;;22.62;39.10;101992.84;16143964;19;129309;-51
2022/05/18 12:49:05;;;;;;;5.45;0.82;;;;;;;22.62;39.19;101994.75;16148420;19;129195;-52
2022/05/18 12:54:37;;;;;;;6.05;0.88;;;;;;;22.64;39.42;101987.88;16147483;19;129342;-52
2022/05/18 13:00:13;;;;;;;2.60;0.77;;;;;;;22.70;39.83;101991.59;16144373;19;129452;-51
2022/05/18 13:05:40;;;;;;;7.63;1.13;;;;;;;22.72;39.44;101983.81;16148766;19;129968;-53
2022/05/18 13:11:08;;;;;;;5.28;0.95;;;;;;;22.74;39.82;101982.47;16146492;19;129052;-51
2022/05/18 13:16:38;;;;;;;2.92;0.80;;;;;;;22.78;39.68;101979.19;16143997;19;129334;-53
2022/05/18 13:22:15;;;;;;;3.03;0.98;;;;;;;22.80;40.08;101985.34;16145764;19;129341;-50
2022/05/18 13:27:45;;;;;;;3.97;1.00;;;;;;;22.82;39.98;101977.59;16146653;19;129400;-53
2022/05/18 13:33:08;;;;;;;5.25;0.77;;;;;;;22.82;39.76;101972.88;16146134;19;130843;-49
2022/05/18 13:38:32;;;;;;;4.97;0.77;;;;;;;22.85;40.13;101969.56;16144113;19;129357;-48
2022/05/18 13:43:59;;;;;;;5.63;0.93;;;;;;;22.88;39.92;101966.28;16143352;19;129215;-51
2022/05/18 13:49:25;;;;;;;10.43;3.10;;;;;;;22.92;40.37;101955.47;16145294;19;128961;-50
2022/05/18 13:54:50;;;;;;;13.85;3.17;;;;;;;22.96;40.15;101964.19;16143728;19;128903;-54
2022/05/18 14:00:22;;;;;;;15.60;2.58;;;;;;;22.97;40.65;101963.97;16137781;19;128853;-52
2022/05/18 14:05:45;;;;;;;6.13;2.45;;;;;;;22.99;40.52;101956.19;16143227;19;129498;-54
2022/05/18 14:11:18;;;;;;;8.40;2.83;;;;;;;22.99;40.81;101952.53;16141961;19;130541;-51
2022/05/18 14:16:52;;;;;;;7.78;2.60;;;;;;;23.00;40.42;101943.94;16141100;19;129424;-49
2022/05/18 14:22:18;;;;;;;5.30;2.20;;;;;;;22.98;40.23;101948.06;16143313;19;130283;-50
2022/05/18 14:27:48;;;;;;;5.53;2.05;;;;;;;22.99;40.20;101936.66;16143738;19;129463;-52
2022/05/18 14:33:15;;;;;;;5.20;2.15;;;;;;;23.01;40.51;101942.84;16142532;19;129407;-50
2022/05/18 14:38:47;;;;;;;5.68;1.73;;;;;;;23.02;40.35;101927.75;16139476;19;131776;-52
2022/05/18 14:44:09;;;;;;;7.18;2.70;;;;;;;23.01;40.41;101926.09;16142160;19;129273;-54
2022/05/18 14:49:37;;;;;;;6.38;1.90;;;;;;;23.02;40.56;101916.59;16143639;19;129422;-49
2022/05/18 14:55:07;;;;;;;4.85;1.60;;;;;;;23.04;40.55;101925.56;16140864;19;128877;-51
2022/05/18 15:00:35;;;;;;;4.72;1.85;;;;;;;23.05;40.47;101921.69;16136753;19;129301;-50
2022/05/18 15:05:57;;;;;;;4.50;1.80;;;;;;;23.05;40.14;101906.91;16141151;19;129312;-51
2022/05/18 15:11:33;;;;;;;3.53;1.55;;;;;;;23.08;40.09;101908.31;16140167;19;128862;-48
2022/05/18 15:17:00;;;;;;;3.78;1.63;;;;;;;23.08;40.47;101908.31;16138361;19;128751;-52
2022/05/18 15:22:33;;;;;;;6.47;1.60;;;;;;;23.09;40.83;101896.91;16131877;19;130400;-53
2022/05/18 15:27:55;;;;;;;4.50;1.42;;;;;;;23.09;40.47;101893.28;16137964;19;129129;-50
2022/05/18 15:33:18;;;;;;;6.43;1.35;;;;;;;23.08;40.36;101894.38;16136817;19;129885;-51
2022/05/18 15:38:41;;;;;;;5.65;1.42;;;;;;;23.05;40.63;101890.16;16134555;19;129846;-50
2022/05/18 15:44:03;;;;;;;7.43;1.77;;;;;;;23.03;40.81;101895.97;16131669;19;129752;-48
2022/05/18 15:49:33;;;;;;;3.03;1.40;;;;;;;23.02;40.15;101893.44;16131254;19;130665;-50
2022/05/18 15:55:00;;;;;;;2.70;1.40;;;;;;;23.00;40.16;101888.13;16132831;19;129333;-50
2022/05/18 16:00:26;;;;;;;6.15;1.48;;;;;;;23.01;40.25;101884.22;16130340;19;129225;-53
2022/05/18 16:05:47;;;;;;;5.15;1.60;;;;;;;23.00;40.42;101887.25;16135101;19;129049;-53
2022/05/18 16:11:10;;;;;;;3.63;1.60;;;;;;;23.00;40.46;101874.16;16146060;19;130314;-54
2022/05/18 16:16:33;;;;;;;3.65;1.30;;;;;;;23.01;39.91;101869.41;16145864;19;129181;-52
2022/05/18 16:21:55;;;;;;;2.38;1.20;;;;;;;23.01;39.96;101873.06;16144488;19;129842;-51
2022/05/18 16:27:19;;;;;;;2.25;1.27;;;;;;;23.03;40.08;101867.22;16148467;19;128939;-52
2022/05/18 16:32:41;;;;;;;1.50;0.82;;;;;;;23.03;39.81;101868.06;16148765;19;130061;-52
2022/05/18 16:38:03;;;;;;;1.77;0.98;;;;;;;23.05;39.81;101859.44;16140133;19;130683;-53
2022/05/18 16:43:29;;;;;;;2.20;0.77;;;;;;;23.04;39.62;101853.00;16144595;19;130012;-52
2022/05/18 16:48:50;;;;;;;2.10;0.75;;;;;;;23.07;39.88;101853.59;16145404;19;130362;-52
2022/05/18 16:54:12;;;;;;;2.90;1.20;;;;;;;23.06;39.62;101844.41;16147191;19;129176;-51
2022/05/18 16:59:34;;;;;;;2.88;1.35;;;;;;;23.08;39.56;101846.91;16145348;19;130710;-49
2022/05/18 17:10:36;;;;;;;3.70;1.05;;;;;;;23.09;39.64;101838.28;16145746;19;129695;-49
2022/05/18 17:16:00;;;;;;;4.18;1.08;;;;;;;23.08;39.67;101844.13;16139969;19;129781;-45
2022/05/18 17:21:24;;;;;;;2.25;1.30;;;;;;;23.08;39.79;101838.53;16140953;19;129298;-45
2022/05/18 17:27:12;;;;;;;1.95;0.80;;;;;;;23.07;39.41;101848.88;16144661;19;129474;-51
2022/05/18 17:32:34;;;;;;;5.65;1.02;;;;;;;23.04;39.31;101830.69;16144642;19;129566;-44
2022/05/18 17:37:56;;;;;;;1.65;0.90;;;;;;;23.03;39.07;101828.97;16144359;19;129357;-51
2022/05/18 17:43:18;;;;;;;1.58;0.63;;;;;;;23.02;39.10;101832.88;16145408;19;128955;-51
2022/05/18 17:48:41;;;;;;;1.45;0.70;;;;;;;23.00;39.31;101826.72;16141948;19;130300;-48
2022/05/18 17:54:03;;;;;;;1.27;0.77;;;;;;;22.99;39.34;101833.41;16141315;19;129601;-48
2022/05/18 17:59:25;;;;;;;4.65;0.85;;;;;;;22.99;39.10;101822.25;16138603;19;129253;-45
2022/05/18 18:04:48;;;;;;;1.55;0.90;;;;;;;22.98;39.32;101828.06;16136188;19;129725;-51
2022/05/18 18:10:10;;;;;;;1.88;0.70;;;;;;;22.96;39.56;101822.75;16142290;19;130778;-50
2022/05/18 18:15:32;;;;;;;2.47;0.70;;;;;;;22.95;39.09;101826.63;16141017;19;129856;-49
2022/05/18 18:20:54;;;;;;;1.77;0.77;;;;;;;22.95;39.58;101823.84;16134896;19;129337;-47
2022/05/18 18:26:21;;;;;;;3.70;0.90;;;;;;;22.94;39.37;101822.16;16139848;19;129759;-48
2022/05/18 18:31:43;;;;;;;1.60;0.68;;;;;;;22.93;39.60;101817.66;16137600;19;130766;-51
2022/05/18 18:37:07;;;;;;;4.45;0.63;;;;;;;22.91;39.48;101817.06;16134823;19;129799;-52
2022/05/18 18:42:33;;;;;;;1.73;0.70;;;;;;;22.91;39.53;101825.44;16133494;19;130388;-47
2022/05/18 18:47:55;;;;;;;1.40;0.70;;;;;;;22.91;39.75;101830.19;16138556;19;129437;-48
2022/05/18 18:58:57;;;;;;;2.83;0.90;;;;;;;22.87;39.90;101825.06;16136603;19;129070;-48
2022/05/18 19:04:18;;;;;;;1.58;1.00;;;;;;;22.86;39.89;101822.56;16135365;19;129409;-48
2022/05/18 19:09:44;;;;;;;2.67;0.70;;;;;;;22.85;39.95;101818.06;16138955;19;129465;-49
2022/05/18 19:15:09;;;;;;;1.48;0.77;;;;;;;22.84;39.62;101819.16;16135714;19;129002;-47
2022/05/18 19:20:39;;;;;;;1.00;0.60;;;;;;;22.85;40.30;101809.69;16121852;19;130880;-47
2022/05/18 19:26:03;;;;;;;3.83;0.90;;;;;;;22.82;40.00;101818.56;16135343;19;129796;-45
2022/05/18 19:31:25;;;;;;;6.53;1.00;;;;;;;22.81;40.06;101811.28;16136399;19;129157;-48
2022/05/18 19:36:46;;;;;;;5.22;0.85;;;;;;;22.81;40.19;101820.53;16134257;19;129529;-51
2022/05/18 19:42:09;;;;;;;5.80;0.90;;;;;;;22.80;40.25;101818.84;16139158;19;130253;-46
2022/05/18 19:47:31;;;;;;;3.70;0.82;;;;;;;22.77;40.30;101810.13;16148903;19;129410;-48
2022/05/18 19:52:55;;;;;;;3.83;0.80;;;;;;;22.77;40.41;101812.91;16145563;19;129518;-50
2022/05/18 19:58:37;;;;;;;2.83;0.93;;;;;;;22.78;40.75;101803.44;16146512;19;131728;-49
2022/05/18 20:03:59;;;;;;;5.07;0.93;;;;;;;22.81;40.75;101802.94;16143850;19;129644;-50
2022/05/18 20:09:25;;;;;;;5.45;0.90;;;;;;;22.84;40.78;101792.09;16146080;19;130937;-46
2022/05/18 20:14:47;;;;;;;3.75;0.90;;;;;;;22.83;40.74;101792.38;16148802;19;128947;-48
2022/05/18 20:20:09;;;;;;;0.93;0.50;;;;;;;22.84;41.00;101794.06;16147852;19;129416;-49
2022/05/18 20:25:33;;;;;;;2.42;1.00;;;;;;;22.82;40.47;101787.88;16151147;19;129361;-47
2022/05/18 20:30:55;;;;;;;1.33;0.85;;;;;;;22.82;40.72;101796.25;16145248;19;129498;-48
2022/05/18 20:36:16;;;;;;;4.95;0.90;;;;;;;22.80;40.79;101790.06;16153601;19;129436;-49
2022/05/18 20:41:41;;;;;;;2.45;0.70;;;;;;;22.79;40.67;101788.38;16146837;19;130469;-47
2022/05/18 20:47:07;;;;;;;4.20;1.17;;;;;;;22.78;40.95;101781.97;16148420;19;129342;-46
2022/05/18 20:52:29;;;;;;;0.95;0.50;;;;;;;22.78;40.67;101792.25;16145966;19;128894;-50
2022/05/18 20:57:52;;;;;;;2.33;1.13;;;;;;;22.78;40.67;101801.50;16146833;19;129311;-49
2022/05/18 21:03:14;;;;;;;2.28;0.80;;;;;;;22.75;40.55;101793.63;16142663;19;130884;-52
2022/05/18 21:08:38;;;;;;;1.10;0.55;;;;;;;22.74;40.66;101787.22;16146625;19;130065;-51
2022/05/18 21:14:03;;;;;;;2.53;0.82;;;;;;;22.74;40.86;101780.78;16144919;19;129503;-50
2022/05/18 21:19:24;;;;;;;3.45;0.70;;;;;;;22.73;40.66;101785.53;16140706;19;130265;-51
2022/05/18 21:24:46;;;;;;;3.20;1.15;;;;;;;22.72;40.79;101783.84;16144483;19;129190;-52
2022/05/18 21:30:09;;;;;;;1.88;0.68;;;;;;;22.73;40.56;101779.09;16146391;19;129643;-52
2022/05/18 21:35:32;;;;;;;5.47;0.80;;;;;;;22.71;40.73;101782.13;16145014;19;129387;-49
2022/05/18 21:40:53;;;;;;;6.20;1.48;;;;;;;22.71;40.31;101782.13;16143251;19;129152;-50
2022/05/18 21:46:18;;;;;;;1.38;0.82;;;;;;;22.72;40.54;101780.19;16145312;19;128989;-51
2022/05/18 21:51:41;;;;;;;1.37;0.80;;;;;;;22.70;40.37;101769.28;16136770;19;131102;-49
2022/05/18 21:57:03;;;;;;;2.15;0.70;;;;;;;22.70;40.31;101752.56;16134145;19;130259;-48
2022/05/18 22:02:30;;;;;;;1.60;0.60;;;;;;;22.69;40.45;101734.13;16133922;19;129314;-49
2022/05/18 22:07:52;;;;;;;0.80;0.57;;;;;;;22.69;40.41;101710.97;16144861;19;129236;-51
2022/05/18 22:13:14;;;;;;;1.75;0.70;;;;;;;22.68;40.67;101698.13;16142015;19;129647;-51
2022/05/18 22:18:35;;;;;;;1.77;0.80;;;;;;;22.68;40.73;101709.28;16136612;19;129504;-49
2022/05/18 22:23:57;;;;;;;1.75;0.60;;;;;;;22.67;40.39;101705.63;16132632;19;130426;-51
2022/05/18 22:29:20;;;;;;;1.65;0.70;;;;;;;22.67;40.33;101699.22;16120832;19;131360;-52
2022/05/18 22:34:42;;;;;;;1.85;0.73;;;;;;;22.66;40.44;101700.31;16122299;19;130262;-52
2022/05/18 22:40:04;;;;;;;3.03;0.90;;;;;;;22.65;40.44;101682.72;16121543;19;130394;-50
2022/05/18 22:45:27;;;;;;;1.02;0.65;;;;;;;22.65;40.75;101691.09;16131544;19;129806;-48
2022/05/18 22:50:51;;;;;;;0.95;0.60;;;;;;;22.65;40.62;101687.47;16136083;19;129437;-44
2022/05/18 22:56:12;;;;;;;1.02;0.60;;;;;;;22.64;40.42;101686.66;16135810;19;129734;-50
2022/05/18 23:01:34;;;;;;;2.53;0.73;;;;;;;22.64;40.57;101685.78;16132952;19;130348;-49
2022/05/18 23:06:56;;;;;;;1.50;0.85;;;;;;;22.64;40.72;101669.06;16133906;19;129840;-46
2022/05/18 23:12:18;;;;;;;1.15;0.70;;;;;;;22.63;40.70;101675.72;16136792;19;130141;-48
2022/05/18 23:17:47;;;;;;;2.15;1.08;;;;;;;22.63;40.63;101668.22;16129587;19;129476;-50
2022/05/18 23:28:51;;;;;;;1.70;0.68;;;;;;;22.61;40.86;101647.25;16132462;19;130673;-51
2022/05/18 23:34:13;;;;;;;0.90;0.50;;;;;;;22.60;40.68;101635.25;16131563;19;130884;-49
2022/05/18 23:39:38;;;;;;;0.50;0.50;;;;;;;22.60;40.39;101629.69;16130929;19;129779;-52
2022/05/18 23:44:59;;;;;;;1.77;0.70;;;;;;;22.60;40.51;101629.69;16128118;19;130470;-45
2022/05/18 23:56:08;;;;;;;0.95;0.50;;;;;;;22.59;41.00;101605.69;16129652;19;130145;-49
